PWSweather.com
Personal Weather Stations
Station Observations
ESTFIQ
Santa Fe, Santa FeAR 3000

Santa FeSanta FeAR 3000

Lat: -31.637, Lon: -60.708

Elevation: 69

Station Type: WH-1081

http://galileo4.unl.edu.ar/estacion

Latest ConditionsUpdated 7:20:01 AM GMT-03:57 Thursday, Nov 21, 2019
Currently Today's Max Today's Min Today's Average
Temperature 74.5°F23.6°C 79.5°F26.4°C 72.9°F22.7°C 75.0°F23.9°C
Dew Point 69.4°F20.8°C 69.4°F20.8°C 66.8°F19.3°C 67.8°F19.9°C
Winds 3.1 mph NE5.0 kmh NE 13.0 mph -20.9 kmh - - 5.3 mph 8.5 kmh
Wind Gusts 6.9 mph11.1 kmh 23.5 mph37.8 kmh - -
Humidity 84% 86% 65% 78%
Pressure 29.80 in1009.1 mb 29.84 in1010.5 mb 29.75 in1007.5 mb -
Hour Temp Dew Point Humidity Winds Wind Gusts Pressure Precip Precip Rate Daily Precip Total
07:20 AM 74.5°F23.6°C 69.4°F20.8°C 84% 3.1 mph NE5.0 kmh NE 6.9 mph11.1 kmh 29.80 in1009.1 mb 0.00 in0.0 mm 0.00 in0.0 mm 0.00 in0.0 mm
07:15 AM 74.5°F23.6°C 69.4°F20.8°C 84% 5.4 mph NE8.7 kmh NE 8.3 mph13.4 kmh 29.80 in1009.1 mb 0.00 in0.0 mm 0.00 in0.0 mm 0.00 in0.0 mm
07:10 AM 74.5°F23.6°C 69.4°F20.8°C 84% 3.1 mph NNE5.0 kmh NNE 9.2 mph14.8 kmh 29.80 in1009.1 mb 0.00 in0.0 mm 0.00 in0.0 mm 0.00 in0.0 mm
07:05 AM 74.5°F23.6°C 69.0°F20.6°C 83% 5.4 mph NE8.7 kmh NE 9.2 mph14.8 kmh 29.80 in1009.1 mb 0.00 in0.0 mm 0.00 in0.0 mm 0.00 in0.0 mm
07:00 AM 74.1°F23.4°C 68.7°F20.4°C 83% 5.4 mph SE8.7 kmh SE 8.3 mph13.4 kmh 29.79 in1008.8 mb 0.00 in0.0 mm 0.00 in0.0 mm 0.00 in0.0 mm
06:55 AM 73.6°F23.1°C 68.1°F20.1°C 83% 2.2 mph S3.5 kmh S 10.7 mph17.2 kmh 29.75 in1007.5 mb 0.00 in0.0 mm 0.00 in0.0 mm 0.00 in0.0 mm
06:50 AM 73.6°F23.1°C 68.5°F20.3°C 84% 1.6 mph S2.6 kmh S 10.7 mph17.2 kmh 29.75 in1007.5 mb 0.00 in0.0 mm 0.00 in0.0 mm 0.00 in0.0 mm
06:45 AM 73.6°F23.1°C 68.5°F20.3°C 84% 6.9 mph S11.1 kmh S 10.7 mph17.2 kmh 29.77 in1008.1 mb 0.00 in0.0 mm 0.00 in0.0 mm 0.00 in0.0 mm
06:40 AM 73.6°F23.1°C 68.5°F20.3°C 84% 2.2 mph NE3.5 kmh NE 6.0 mph9.7 kmh 29.80 in1009.1 mb 0.00 in0.0 mm 0.00 in0.0 mm 0.00 in0.0 mm
06:35 AM 73.4°F23.0°C 68.0°F20.0°C 83% 1.6 mph N2.6 kmh N 13.0 mph20.9 kmh 29.82 in1009.8 mb 0.00 in0.0 mm 0.00 in0.0 mm 0.00 in0.0 mm
06:30 AM 73.6°F23.1°C 68.1°F20.1°C 83% 3.1 mph N5.0 kmh N 18.3 mph29.5 kmh 29.82 in1009.8 mb 0.00 in0.0 mm 0.00 in0.0 mm 0.00 in0.0 mm
06:25 AM 73.6°F23.1°C 68.1°F20.1°C 83% 9.8 mph N15.8 kmh N 18.3 mph29.5 kmh 29.84 in1010.5 mb 0.00 in0.0 mm 0.00 in0.0 mm 0.00 in0.0 mm
06:20 AM 73.4°F23.0°C 68.3°F20.2°C 84% 13.0 mph N20.9 kmh N 17.4 mph28.0 kmh 29.84 in1010.5 mb 0.00 in0.0 mm 0.00 in0.0 mm 0.00 in0.0 mm
06:15 AM 73.4°F23.0°C 68.7°F20.4°C 85% 13.0 mph N20.9 kmh N 15.9 mph25.6 kmh 29.83 in1010.2 mb 0.00 in0.0 mm 0.00 in0.0 mm 0.00 in0.0 mm
06:10 AM 73.2°F22.9°C 68.1°F20.1°C 84% 8.3 mph NW13.4 kmh NW 13.0 mph20.9 kmh 29.82 in1009.8 mb 0.00 in0.0 mm 0.00 in0.0 mm 0.00 in0.0 mm
06:05 AM 73.0°F22.8°C 68.0°F20.0°C 84% 5.4 mph NW8.7 kmh NW 12.1 mph19.5 kmh 29.82 in1009.8 mb 0.00 in0.0 mm 0.00 in0.0 mm 0.00 in0.0 mm
06:00 AM 73.2°F22.9°C 68.8°F20.4°C 86% 5.4 mph NW8.7 kmh NW 12.1 mph19.5 kmh 29.81 in1009.5 mb 0.00 in0.0 mm 0.00 in0.0 mm 0.00 in0.0 mm
05:55 AM 72.9°F22.7°C 68.5°F20.3°C 86% 6.0 mph NW9.7 kmh NW 14.5 mph23.3 kmh 29.81 in1009.5 mb 0.00 in0.0 mm 0.00 in0.0 mm 0.00 in0.0 mm
05:50 AM 72.9°F22.7°C 68.5°F20.3°C 86% 11.4 mph NW18.3 kmh NW 14.5 mph23.3 kmh 29.81 in1009.5 mb 0.00 in0.0 mm 0.00 in0.0 mm 0.00 in0.0 mm
05:45 AM 72.9°F22.7°C 68.5°F20.3°C 86% 9.2 mph NW14.8 kmh NW 12.1 mph19.5 kmh 29.80 in1009.1 mb 0.00 in0.0 mm 0.00 in0.0 mm 0.00 in0.0 mm
05:40 AM 72.9°F22.7°C 68.5°F20.3°C 86% 6.9 mph NW11.1 kmh NW 13.0 mph20.9 kmh 29.79 in1008.8 mb 0.00 in0.0 mm 0.00 in0.0 mm 0.00 in0.0 mm
05:35 AM 73.0°F22.8°C 68.3°F20.2°C 85% 7.6 mph NW12.2 kmh NW 13.6 mph21.9 kmh 29.79 in1008.8 mb 0.00 in0.0 mm 0.00 in0.0 mm 0.00 in0.0 mm
05:30 AM 73.4°F23.0°C 68.7°F20.4°C 85% 12.1 mph NW19.5 kmh NW 15.9 mph25.6 kmh 29.79 in1008.8 mb 0.00 in0.0 mm 0.00 in0.0 mm 0.00 in0.0 mm
05:25 AM 73.6°F23.1°C 68.5°F20.3°C 84% 8.3 mph NW13.4 kmh NW 15.9 mph25.6 kmh 29.79 in1008.8 mb 0.00 in0.0 mm 0.00 in0.0 mm 0.00 in0.0 mm
05:20 AM 73.9°F23.3°C 68.5°F20.3°C 83% 9.2 mph NW14.8 kmh NW 13.6 mph21.9 kmh 29.78 in1008.5 mb 0.00 in0.0 mm 0.00 in0.0 mm 0.00 in0.0 mm
05:15 AM 74.1°F23.4°C 68.7°F20.4°C 83% 9.2 mph NW14.8 kmh NW 13.6 mph21.9 kmh 29.79 in1008.8 mb 0.00 in0.0 mm 0.00 in0.0 mm 0.00 in0.0 mm
05:10 AM 73.9°F23.3°C 68.1°F20.1°C 82% 6.0 mph NW9.7 kmh NW 14.5 mph23.3 kmh 29.80 in1009.1 mb 0.00 in0.0 mm 0.00 in0.0 mm 0.00 in0.0 mm
05:05 AM 74.1°F23.4°C 68.3°F20.2°C 82% 9.8 mph NW15.8 kmh NW 14.5 mph23.3 kmh 29.80 in1009.1 mb 0.00 in0.0 mm 0.00 in0.0 mm 0.00 in0.0 mm
05:00 AM 74.3°F23.5°C 67.8°F19.9°C 80% 10.7 mph NW17.2 kmh NW 14.5 mph23.3 kmh 29.80 in1009.1 mb 0.00 in0.0 mm 0.00 in0.0 mm 0.00 in0.0 mm
04:55 AM 74.5°F23.6°C 67.6°F19.8°C 79% 9.2 mph NW14.8 kmh NW 14.5 mph23.3 kmh 29.79 in1008.8 mb 0.00 in0.0 mm 0.00 in0.0 mm 0.00 in0.0 mm
04:50 AM 74.8°F23.8°C 67.6°F19.8°C 78% 11.4 mph NW18.3 kmh NW 16.8 mph27.0 kmh 29.80 in1009.1 mb 0.00 in0.0 mm 0.00 in0.0 mm 0.00 in0.0 mm
04:45 AM 75.0°F23.9°C 67.7°F19.8°C 78% 9.2 mph NW14.8 kmh NW 16.8 mph27.0 kmh 29.80 in1009.1 mb 0.00 in0.0 mm 0.00 in0.0 mm 0.00 in0.0 mm
04:40 AM 75.2°F24.0°C 67.2°F19.6°C 76% 9.8 mph NW15.8 kmh NW 15.9 mph25.6 kmh 29.80 in1009.1 mb 0.00 in0.0 mm 0.00 in0.0 mm 0.00 in0.0 mm
04:35 AM 75.2°F24.0°C 67.2°F19.6°C 76% 8.3 mph NW13.4 kmh NW 15.9 mph25.6 kmh 29.80 in1009.1 mb 0.00 in0.0 mm 0.00 in0.0 mm 0.00 in0.0 mm
04:30 AM 75.4°F24.1°C 66.9°F19.4°C 75% 9.2 mph NW14.8 kmh NW 15.2 mph24.5 kmh 29.80 in1009.1 mb 0.00 in0.0 mm 0.00 in0.0 mm 0.00 in0.0 mm
04:25 AM 75.6°F24.2°C 67.1°F19.5°C 75% 9.2 mph NW14.8 kmh NW 14.5 mph23.3 kmh 29.80 in1009.1 mb 0.00 in0.0 mm 0.00 in0.0 mm 0.00 in0.0 mm
04:20 AM 75.7°F24.3°C 66.9°F19.4°C 74% 6.9 mph NW11.1 kmh NW 14.5 mph23.3 kmh 29.80 in1009.1 mb 0.00 in0.0 mm 0.00 in0.0 mm 0.00 in0.0 mm
04:15 AM 75.7°F24.3°C 66.9°F19.4°C 74% 6.9 mph NW11.1 kmh NW 10.7 mph17.2 kmh 29.80 in1009.1 mb 0.00 in0.0 mm 0.00 in0.0 mm 0.00 in0.0 mm
04:10 AM 75.7°F24.3°C 67.3°F19.6°C 75% 6.9 mph NW11.1 kmh NW 9.2 mph14.8 kmh 29.79 in1008.8 mb 0.00 in0.0 mm 0.00 in0.0 mm 0.00 in0.0 mm
04:05 AM 75.4°F24.1°C 66.9°F19.4°C 75% 5.4 mph NW8.7 kmh NW 6.9 mph11.1 kmh 29.78 in1008.5 mb 0.00 in0.0 mm 0.00 in0.0 mm 0.00 in0.0 mm
04:00 AM 75.4°F24.1°C 67.3°F19.6°C 76% 4.5 mph NNW7.2 kmh NNW 6.9 mph11.1 kmh 29.77 in1008.1 mb 0.00 in0.0 mm 0.00 in0.0 mm 0.00 in0.0 mm
03:55 AM 75.4°F24.1°C 67.3°F19.6°C 76% 2.2 mph N3.5 kmh N 3.8 mph6.1 kmh 29.77 in1008.1 mb 0.00 in0.0 mm 0.00 in0.0 mm 0.00 in0.0 mm
03:50 AM 75.4°F24.1°C 67.3°F19.6°C 76% 0.7 mph SE1.1 kmh SE 2.2 mph3.5 kmh 29.75 in1007.5 mb 0.00 in0.0 mm 0.00 in0.0 mm 0.00 in0.0 mm
03:45 AM 75.4°F24.1°C 67.3°F19.6°C 76% Calm Calm 2.2 mph3.5 kmh 29.75 in1007.5 mb 0.00 in0.0 mm 0.00 in0.0 mm 0.00 in0.0 mm
03:40 AM 75.4°F24.1°C 67.3°F19.6°C 76% Calm Calm 2.2 mph3.5 kmh 29.75 in1007.5 mb 0.00 in0.0 mm 0.00 in0.0 mm 0.00 in0.0 mm
03:35 AM 75.4°F24.1°C 67.3°F19.6°C 76% 1.6 mph SSE2.6 kmh SSE 3.1 mph5.0 kmh 29.75 in1007.5 mb 0.00 in0.0 mm 0.00 in0.0 mm 0.00 in0.0 mm
03:30 AM 75.2°F24.0°C 67.2°F19.6°C 76% Calm Calm 4.5 mph7.2 kmh 29.76 in1007.8 mb 0.00 in0.0 mm 0.00 in0.0 mm 0.00 in0.0 mm
03:25 AM 75.4°F24.1°C 67.3°F19.6°C 76% 0.7 mph SE1.1 kmh SE 4.5 mph7.2 kmh 29.76 in1007.8 mb 0.00 in0.0 mm 0.00 in0.0 mm 0.00 in0.0 mm
03:20 AM 75.4°F24.1°C 67.3°F19.6°C 76% 1.6 mph SSE2.6 kmh SSE 4.5 mph7.2 kmh 29.76 in1007.8 mb 0.00 in0.0 mm 0.00 in0.0 mm 0.00 in0.0 mm
03:15 AM 75.4°F24.1°C 67.3°F19.6°C 76% 1.6 mph SSE2.6 kmh SSE 5.4 mph8.7 kmh 29.76 in1007.8 mb 0.00 in0.0 mm 0.00 in0.0 mm 0.00 in0.0 mm
03:10 AM 75.2°F24.0°C 67.2°F19.6°C 76% 0.7 mph SSE1.1 kmh SSE 5.4 mph8.7 kmh 29.76 in1007.8 mb 0.00 in0.0 mm 0.00 in0.0 mm 0.00 in0.0 mm
03:05 AM 75.2°F24.0°C 67.2°F19.6°C 76% 0.7 mph S1.1 kmh S 3.8 mph6.1 kmh 29.77 in1008.1 mb 0.00 in0.0 mm 0.00 in0.0 mm 0.00 in0.0 mm
03:00 AM 75.4°F24.1°C 67.3°F19.6°C 76% 1.6 mph SSE2.6 kmh SSE 5.4 mph8.7 kmh 29.77 in1008.1 mb 0.00 in0.0 mm 0.00 in0.0 mm 0.00 in0.0 mm
02:55 AM 75.4°F24.1°C 67.3°F19.6°C 76% 2.2 mph SE3.5 kmh SE 5.4 mph8.7 kmh 29.77 in1008.1 mb 0.00 in0.0 mm 0.00 in0.0 mm 0.00 in0.0 mm
02:50 AM 75.4°F24.1°C 67.3°F19.6°C 76% 1.6 mph SSE2.6 kmh SSE 6.9 mph11.1 kmh 29.77 in1008.1 mb 0.00 in0.0 mm 0.00 in0.0 mm 0.00 in0.0 mm
02:45 AM 75.4°F24.1°C 67.3°F19.6°C 76% 1.6 mph SSW2.6 kmh SSW 6.9 mph11.1 kmh 29.77 in1008.1 mb 0.00 in0.0 mm 0.00 in0.0 mm 0.00 in0.0 mm
02:40 AM 75.2°F24.0°C 67.2°F19.6°C 76% 3.1 mph S5.0 kmh S 7.6 mph12.2 kmh 29.77 in1008.1 mb 0.00 in0.0 mm 0.00 in0.0 mm 0.00 in0.0 mm
02:35 AM 75.2°F24.0°C 67.5°F19.7°C 77% 2.2 mph S3.5 kmh S 7.6 mph12.2 kmh 29.77 in1008.1 mb 0.00 in0.0 mm 0.00 in0.0 mm 0.00 in0.0 mm
02:30 AM 74.8°F23.8°C 67.6°F19.8°C 78% 3.1 mph S5.0 kmh S 7.6 mph12.2 kmh 29.77 in1008.1 mb 0.00 in0.0 mm 0.00 in0.0 mm 0.00 in0.0 mm
02:25 AM 74.8°F23.8°C 67.6°F19.8°C 78% 3.1 mph S5.0 kmh S 8.3 mph13.4 kmh 29.77 in1008.1 mb 0.00 in0.0 mm 0.00 in0.0 mm 0.00 in0.0 mm
02:20 AM 74.8°F23.8°C 67.9°F19.9°C 79% 3.1 mph S5.0 kmh S 9.2 mph14.8 kmh 29.77 in1008.1 mb 0.00 in0.0 mm 0.00 in0.0 mm 0.00 in0.0 mm
02:15 AM 74.8°F23.8°C 67.9°F19.9°C 79% 3.1 mph SSW5.0 kmh SSW 9.2 mph14.8 kmh 29.76 in1007.8 mb 0.00 in0.0 mm 0.00 in0.0 mm 0.00 in0.0 mm
02:10 AM 74.8°F23.8°C 67.9°F19.9°C 79% 2.2 mph S3.5 kmh S 10.7 mph17.2 kmh 29.76 in1007.8 mb 0.00 in0.0 mm 0.00 in0.0 mm 0.00 in0.0 mm
02:05 AM 74.8°F23.8°C 67.9°F19.9°C 79% 0.7 mph S1.1 kmh S 11.4 mph18.3 kmh 29.75 in1007.5 mb 0.00 in0.0 mm 0.00 in0.0 mm 0.00 in0.0 mm
02:00 AM 74.8°F23.8°C 67.9°F19.9°C 79% 8.3 mph S13.4 kmh S 11.4 mph18.3 kmh 29.77 in1008.1 mb 0.00 in0.0 mm 0.00 in0.0 mm 0.00 in0.0 mm
01:55 AM 74.8°F23.8°C 67.9°F19.9°C 79% 7.6 mph S12.2 kmh S 11.4 mph18.3 kmh 29.76 in1007.8 mb 0.00 in0.0 mm 0.00 in0.0 mm 0.00 in0.0 mm
01:50 AM 74.8°F23.8°C 67.6°F19.8°C 78% 6.9 mph NE11.1 kmh NE 10.7 mph17.2 kmh 29.77 in1008.1 mb 0.00 in0.0 mm 0.00 in0.0 mm 0.00 in0.0 mm
01:45 AM 75.2°F24.0°C 67.5°F19.7°C 77% 3.1 mph NE5.0 kmh NE 7.6 mph12.2 kmh 29.77 in1008.1 mb 0.00 in0.0 mm 0.00 in0.0 mm 0.00 in0.0 mm
01:40 AM 75.2°F24.0°C 67.5°F19.7°C 77% 0.7 mph NW1.1 kmh NW 8.3 mph13.4 kmh 29.78 in1008.5 mb 0.00 in0.0 mm 0.00 in0.0 mm 0.00 in0.0 mm
01:35 AM 75.4°F24.1°C 67.7°F19.8°C 77% 1.6 mph WNW2.6 kmh WNW 8.3 mph13.4 kmh 29.78 in1008.5 mb 0.00 in0.0 mm 0.00 in0.0 mm 0.00 in0.0 mm
01:30 AM 75.4°F24.1°C 67.3°F19.6°C 76% 3.8 mph WNW6.1 kmh WNW 5.4 mph8.7 kmh 29.79 in1008.8 mb 0.00 in0.0 mm 0.00 in0.0 mm 0.00 in0.0 mm
01:25 AM 75.4°F24.1°C 67.3°F19.6°C 76% 1.6 mph S2.6 kmh S 6.0 mph9.7 kmh 29.78 in1008.5 mb 0.00 in0.0 mm 0.00 in0.0 mm 0.00 in0.0 mm
01:20 AM 75.4°F24.1°C 67.7°F19.8°C 77% 2.2 mph S3.5 kmh S 16.8 mph27.0 kmh 29.77 in1008.1 mb 0.00 in0.0 mm 0.00 in0.0 mm 0.00 in0.0 mm
01:15 AM 75.4°F24.1°C 67.7°F19.8°C 77% 3.8 mph S6.1 kmh S 16.8 mph27.0 kmh 29.78 in1008.5 mb 0.00 in0.0 mm 0.00 in0.0 mm 0.00 in0.0 mm
01:10 AM 75.4°F24.1°C 67.3°F19.6°C 76% 6.9 mph S11.1 kmh S 15.2 mph24.5 kmh 29.76 in1007.8 mb 0.00 in0.0 mm 0.00 in0.0 mm 0.00 in0.0 mm
01:05 AM 75.7°F24.3°C 67.7°F19.8°C 76% 7.6 mph S12.2 kmh S 14.5 mph23.3 kmh 29.77 in1008.1 mb 0.00 in0.0 mm 0.00 in0.0 mm 0.00 in0.0 mm
01:00 AM 75.7°F24.3°C 67.7°F19.8°C 76% 3.8 mph SSW6.1 kmh SSW 14.5 mph23.3 kmh 29.76 in1007.8 mb 0.00 in0.0 mm 0.00 in0.0 mm 0.00 in0.0 mm
12:55 AM 75.7°F24.3°C 67.7°F19.8°C 76% 8.3 mph S13.4 kmh S 14.5 mph23.3 kmh 29.76 in1007.8 mb 0.00 in0.0 mm 0.00 in0.0 mm 0.00 in0.0 mm
12:50 AM 75.7°F24.3°C 67.7°F19.8°C 76% 5.4 mph S8.7 kmh S 15.2 mph24.5 kmh 29.76 in1007.8 mb 0.00 in0.0 mm 0.00 in0.0 mm 0.00 in0.0 mm
12:45 AM 76.1°F24.5°C 68.0°F20.0°C 76% 9.2 mph WSW14.8 kmh WSW 15.2 mph24.5 kmh 29.77 in1008.1 mb 0.00 in0.0 mm 0.00 in0.0 mm 0.00 in0.0 mm
12:40 AM 76.1°F24.5°C 67.6°F19.8°C 75% 9.8 mph WSW15.8 kmh WSW 13.0 mph20.9 kmh 29.77 in1008.1 mb 0.00 in0.0 mm 0.00 in0.0 mm 0.00 in0.0 mm
12:35 AM 76.5°F24.7°C 68.0°F20.0°C 75% 3.8 mph WSW6.1 kmh WSW 14.5 mph23.3 kmh 29.77 in1008.1 mb 0.00 in0.0 mm 0.00 in0.0 mm 0.00 in0.0 mm
12:30 AM 76.6°F24.8°C 67.8°F19.9°C 74% 3.8 mph SSW6.1 kmh SSW 18.3 mph29.5 kmh 29.78 in1008.5 mb 0.00 in0.0 mm 0.00 in0.0 mm 0.00 in0.0 mm
12:25 AM 77.2°F25.1°C 67.5°F19.7°C 72% 7.6 mph SSW12.2 kmh SSW 18.3 mph29.5 kmh 29.78 in1008.5 mb 0.00 in0.0 mm 0.00 in0.0 mm 0.00 in0.0 mm
12:20 AM 77.5°F25.3°C 67.8°F19.9°C 72% 3.8 mph SW6.1 kmh SW 17.4 mph28.0 kmh 29.78 in1008.5 mb 0.00 in0.0 mm 0.00 in0.0 mm 0.00 in0.0 mm
12:15 AM 77.5°F25.3°C 67.4°F19.7°C 71% 6.0 mph S9.7 kmh S 17.4 mph28.0 kmh 29.79 in1008.8 mb 0.00 in0.0 mm 0.00 in0.0 mm 0.00 in0.0 mm
12:10 AM 77.7°F25.4°C 67.2°F19.6°C 70% 9.8 mph SW15.8 kmh SW 17.4 mph28.0 kmh 29.79 in1008.8 mb 0.00 in0.0 mm 0.00 in0.0 mm 0.00 in0.0 mm
12:05 AM 79.2°F26.2°C 67.7°F19.8°C 68% 4.5 mph SSW7.2 kmh SSW 17.4 mph28.0 kmh 29.79 in1008.8 mb 0.00 in0.0 mm 0.00 in0.0 mm 0.00 in0.0 mm
12:00 AM 79.5°F26.4°C 66.8°F19.3°C 65% 7.6 mph SSW12.2 kmh SSW 23.5 mph37.8 kmh 29.79 in1008.8 mb 0.00 in0.0 mm 0.00 in0.0 mm 0.00 in0.0 mm